Time;durP1;ratioP1;P1;durP2;ratioP2;P2;SDS_P1;SDS_P2;PMS_P1;PMS_P2;Temp;Humidity;BMP_temperature;BMP_pressure;BME280_temperature;BME280_humidity;BME280_pressure;Samples;Min_cycle;Max_cycle;Signal;HPM_P1;HPM_P2
2021/11/20 00:00:30;;;;;;;25.23;19.83;;;;;;;;;;5086106;28;20028;-45
2021/11/20 00:02:55;;;;;;;17.38;14.55;;;;;;;;;;5105616;28;20035;-41
2021/11/20 00:05:24;;;;;;;18.63;16.73;;;;;;;;;;5107188;28;20046;-42
2021/11/20 00:07:50;;;;;;;14.60;12.98;;;;;;;;;;5106957;28;20027;-45
2021/11/20 00:10:17;;;;;;;24.88;13.70;;;;;;;;;;5100357;28;20804;-41
2021/11/20 00:12:43;;;;;;;14.75;13.25;;;;;;;;;;5105112;28;20061;-42
2021/11/20 00:15:13;;;;;;;15.18;12.43;;;;;;;;;;5086602;28;20028;-42
2021/11/20 00:17:38;;;;;;;17.45;13.82;;;;;;;;;;5104994;28;20085;-45
2021/11/20 00:20:05;;;;;;;13.45;12.07;;;;;;;;;;5102285;28;20035;-40
2021/11/20 00:22:38;;;;;;;21.63;13.50;;;;;;;;;;5104353;28;20510;-39
2021/11/20 00:25:31;;;;;;;16.80;11.18;;;;;;;;;;5040331;28;20607;-41
2021/11/20 00:27:57;;;;;;;22.35;18.73;;;;;;;;;;5042072;28;20037;-43
2021/11/20 00:30:28;;;;;;;18.88;15.98;;;;;;;;;;5035238;28;20028;-43
2021/11/20 00:32:59;;;;;;;19.05;17.00;;;;;;;;;;5042834;28;20095;-40
2021/11/20 00:35:26;;;;;;;19.08;15.90;;;;;;;;;;5043454;28;20039;-43
2021/11/20 00:37:51;;;;;;;19.63;16.95;;;;;;;;;;5048716;28;20094;-41
2021/11/20 00:40:28;;;;;;;23.23;16.30;;;;;;;;;;5044454;28;20165;-42
2021/11/20 00:42:53;;;;;;;24.50;18.27;;;;;;;;;;5043277;28;20550;-40
2021/11/20 00:45:19;;;;;;;24.75;19.85;;;;;;;;;;5043154;28;20126;-44
2021/11/20 00:47:48;;;;;;;33.33;20.83;;;;;;;;;;5043717;28;20131;-41
2021/11/20 00:50:17;;;;;;;32.58;22.23;;;;;;;;;;5044678;28;20036;-42
2021/11/20 00:52:51;;;;;;;34.25;21.63;;;;;;;;;;5044350;28;20025;-42
2021/11/20 00:55:25;;;;;;;26.88;21.33;;;;;;;;;;5046223;28;20077;-41
2021/11/20 00:57:51;;;;;;;26.85;18.30;;;;;;;;;;5105550;28;20038;-46
2021/11/20 01:00:18;;;;;;;28.73;17.98;;;;;;;;;;5085688;28;20035;-40
2021/11/20 01:02:44;;;;;;;26.73;19.33;;;;;;;;;;5105316;28;20028;-39
2021/11/20 01:05:10;;;;;;;19.83;17.52;;;;;;;;;;5104948;28;20554;-40
2021/11/20 01:07:37;;;;;;;17.80;15.80;;;;;;;;;;5106001;28;20042;-41
2021/11/20 01:10:06;;;;;;;22.75;15.38;;;;;;;;;;5107422;28;20039;-41
2021/11/20 01:12:33;;;;;;;20.80;15.98;;;;;;;;;;5108110;28;20059;-40
2021/11/20 01:14:59;;;;;;;18.10;16.02;;;;;;;;;;5105869;28;20036;-40
2021/11/20 01:17:26;;;;;;;20.85;17.65;;;;;;;;;;5108342;28;20650;-42
2021/11/20 01:19:51;;;;;;;27.42;17.58;;;;;;;;;;5088779;28;20685;-40
2021/11/20 01:22:18;;;;;;;25.00;16.67;;;;;;;;;;5087937;28;20035;-43
2021/11/20 01:24:43;;;;;;;24.35;18.33;;;;;;;;;;5108375;28;20642;-41
2021/11/20 01:27:09;;;;;;;25.38;16.25;;;;;;;;;;5107999;28;20122;-41
2021/11/20 01:29:34;;;;;;;22.13;15.48;;;;;;;;;;5107473;28;20111;-42
2021/11/20 01:32:00;;;;;;;19.88;17.23;;;;;;;;;;5105248;28;20577;-42
2021/11/20 01:34:26;;;;;;;16.00;13.20;;;;;;;;;;5106166;28;20115;-39
2021/11/20 01:36:53;;;;;;;15.82;12.38;;;;;;;;;;5109114;28;20073;-40
2021/11/20 01:39:22;;;;;;;19.48;10.57;;;;;;;;;;5106939;28;20018;-39
2021/11/20 01:41:48;;;;;;;12.70;11.20;;;;;;;;;;5107642;28;20080;-40
2021/11/20 01:44:19;;;;;;;18.20;12.00;;;;;;;;;;5108079;28;20023;-41
2021/11/20 01:46:46;;;;;;;23.73;13.48;;;;;;;;;;5108345;28;20435;-40
2021/11/20 01:49:17;;;;;;;13.38;10.70;;;;;;;;;;5108438;28;20114;-41
2021/11/20 01:51:46;;;;;;;14.57;10.10;;;;;;;;;;5107360;28;20063;-39
2021/11/20 01:54:31;;;;;;;15.07;11.48;;;;;;;;;;5104234;28;20012;-40
2021/11/20 01:57:12;;;;;;;10.63;9.43;;;;;;;;;;5090317;28;20027;-39
2021/11/20 01:59:45;;;;;;;17.57;12.00;;;;;;;;;;5106083;28;20107;-39
2021/11/20 02:02:17;;;;;;;12.23;10.98;;;;;;;;;;5106781;28;20212;-38
2021/11/20 02:04:56;;;;;;;18.33;13.02;;;;;;;;;;5107386;28;20068;-42
2021/11/20 02:07:33;;;;;;;12.23;11.02;;;;;;;;;;5106803;28;20490;-38
2021/11/20 02:10:01;;;;;;;14.88;11.60;;;;;;;;;;5106136;28;20055;-40
2021/11/20 02:12:32;;;;;;;12.43;10.10;;;;;;;;;;5104911;28;20045;-41
2021/11/20 02:14:58;;;;;;;11.38;10.30;;;;;;;;;;5106015;28;20483;-39
2021/11/20 02:17:26;;;;;;;17.67;10.60;;;;;;;;;;5107329;28;20022;-40
2021/11/20 02:19:59;;;;;;;12.85;11.27;;;;;;;;;;5107425;28;20024;-39
2021/11/20 02:22:38;;;;;;;12.40;9.70;;;;;;;;;;5106193;28;20024;-40
2021/11/20 02:25:03;;;;;;;19.80;10.32;;;;;;;;;;5106146;28;20092;-39
2021/11/20 02:27:33;;;;;;;11.17;9.10;;;;;;;;;;5107671;28;20027;-40
2021/11/20 02:30:13;;;;;;;10.43;8.50;;;;;;;;;;5107469;28;20323;-39
2021/11/20 02:32:39;;;;;;;10.38;8.20;;;;;;;;;;5105760;28;20019;-41
2021/11/20 02:35:05;;;;;;;13.95;8.52;;;;;;;;;;5104242;28;20060;-41
2021/11/20 02:37:30;;;;;;;14.55;9.52;;;;;;;;;;5106692;28;20489;-38
2021/11/20 02:39:56;;;;;;;12.25;8.25;;;;;;;;;;5106057;28;20024;-40
2021/11/20 02:42:22;;;;;;;9.10;8.10;;;;;;;;;;5106443;28;20024;-40
2021/11/20 02:44:47;;;;;;;15.55;10.10;;;;;;;;;;5102519;28;20019;-39
2021/11/20 02:47:24;;;;;;;18.75;10.15;;;;;;;;;;5105551;28;20039;-39
2021/11/20 02:49:52;;;;;;;17.95;11.45;;;;;;;;;;5105849;28;20036;-40
2021/11/20 02:52:21;;;;;;;19.77;8.63;;;;;;;;;;5103554;28;20101;-39
2021/11/20 02:54:47;;;;;;;13.45;10.48;;;;;;;;;;5104965;28;20019;-42
2021/11/20 02:57:20;;;;;;;11.15;9.95;;;;;;;;;;5106851;28;20043;-40
2021/11/20 02:59:45;;;;;;;11.52;9.55;;;;;;;;;;5102619;28;20153;-40
2021/11/20 03:02:19;;;;;;;9.48;7.65;;;;;;;;;;5107011;28;20103;-40
2021/11/20 03:04:47;;;;;;;16.98;8.75;;;;;;;;;;5105872;28;20026;-41
2021/11/20 03:07:16;;;;;;;21.23;9.40;;;;;;;;;;5106105;28;20061;-41
2021/11/20 03:09:43;;;;;;;9.68;7.57;;;;;;;;;;5104670;28;20692;-42
2021/11/20 03:12:10;;;;;;;19.05;9.75;;;;;;;;;;5106157;28;20020;-39
2021/11/20 03:14:35;;;;;;;13.60;10.57;;;;;;;;;;5106670;28;20015;-42
2021/11/20 03:17:03;;;;;;;9.75;8.75;;;;;;;;;;5104693;28;20031;-46
2021/11/20 03:19:35;;;;;;;9.90;8.40;;;;;;;;;;5103906;28;20039;-42
2021/11/20 03:22:03;;;;;;;17.42;10.40;;;;;;;;;;5106864;28;20043;-42
2021/11/20 03:24:29;;;;;;;17.58;10.63;;;;;;;;;;5107187;28;20028;-42
2021/11/20 03:26:57;;;;;;;12.73;11.38;;;;;;;;;;5107269;28;20047;-43
2021/11/20 03:29:24;;;;;;;18.17;15.05;;;;;;;;;;5105661;28;20024;-42
2021/11/20 03:31:52;;;;;;;19.88;11.10;;;;;;;;;;5104174;28;20113;-41
2021/11/20 03:34:21;;;;;;;12.60;8.45;;;;;;;;;;5103816;28;20097;-42
2021/11/20 03:36:47;;;;;;;11.30;7.07;;;;;;;;;;5106380;28;20055;-42
2021/11/20 03:39:12;;;;;;;9.60;7.47;;;;;;;;;;5107143;28;20059;-39
2021/11/20 03:41:38;;;;;;;8.63;7.68;;;;;;;;;;5106534;28;20117;-41
2021/11/20 03:44:04;;;;;;;11.32;7.97;;;;;;;;;;5107549;28;20030;-39
2021/11/20 03:46:29;;;;;;;9.13;6.82;;;;;;;;;;5107184;28;20520;-38
2021/11/20 03:48:54;;;;;;;15.73;7.78;;;;;;;;;;5106979;28;20031;-39
2021/11/20 03:51:20;;;;;;;14.98;8.15;;;;;;;;;;5102327;28;20012;-43
2021/11/20 03:53:45;;;;;;;13.27;8.32;;;;;;;;;;5106736;28;20080;-43
2021/11/20 03:56:11;;;;;;;11.27;9.10;;;;;;;;;;5107298;28;20110;-39
2021/11/20 03:58:37;;;;;;;12.73;9.95;;;;;;;;;;5106887;28;20028;-40
2021/11/20 04:01:06;;;;;;;10.10;8.85;;;;;;;;;;5105879;28;20030;-40
2021/11/20 04:03:32;;;;;;;12.45;9.65;;;;;;;;;;5108762;28;20541;-40
2021/11/20 04:05:58;;;;;;;9.85;8.43;;;;;;;;;;5110970;28;20032;-42
2021/11/20 04:08:25;;;;;;;9.02;8.13;;;;;;;;;;5108360;28;20540;-41
2021/11/20 04:10:51;;;;;;;9.30;8.35;;;;;;;;;;5109617;28;20109;-41
2021/11/20 04:13:16;;;;;;;10.60;9.20;;;;;;;;;;5107827;28;20055;-42
2021/11/20 04:15:42;;;;;;;9.63;8.43;;;;;;;;;;5110016;28;20023;-39
2021/11/20 04:18:08;;;;;;;15.00;10.20;;;;;;;;;;5110241;28;20020;-41
2021/11/20 04:20:33;;;;;;;23.63;8.93;;;;;;;;;;5109179;28;20028;-40
2021/11/20 04:22:59;;;;;;;8.43;7.50;;;;;;;;;;5110447;28;20019;-40
2021/11/20 04:25:24;;;;;;;8.70;7.65;;;;;;;;;;5110966;28;20068;-39
2021/11/20 04:27:50;;;;;;;8.10;7.32;;;;;;;;;;5110370;28;20574;-43
2021/11/20 04:30:15;;;;;;;8.80;7.90;;;;;;;;;;5109429;28;20030;-40
2021/11/20 04:32:42;;;;;;;9.32;6.03;;;;;;;;;;5108339;28;20106;-43
2021/11/20 04:35:08;;;;;;;11.55;7.13;;;;;;;;;;5109555;28;20028;-40
2021/11/20 04:37:34;;;;;;;8.40;6.90;;;;;;;;;;5109995;28;20047;-39
2021/11/20 04:39:59;;;;;;;19.13;6.93;;;;;;;;;;5110709;28;20096;-45
2021/11/20 04:42:25;;;;;;;11.27;7.35;;;;;;;;;;5109916;28;20157;-47
2021/11/20 04:44:50;;;;;;;8.93;7.22;;;;;;;;;;5107326;28;20020;-45
2021/11/20 04:47:15;;;;;;;12.57;7.00;;;;;;;;;;5109605;28;20052;-39
2021/11/20 04:49:41;;;;;;;6.88;6.18;;;;;;;;;;5109378;28;20039;-42
2021/11/20 04:52:07;;;;;;;7.30;4.95;;;;;;;;;;5108745;28;20023;-41
2021/11/20 04:54:32;;;;;;;15.27;5.43;;;;;;;;;;5109482;28;20012;-40
2021/11/20 04:56:58;;;;;;;8.38;7.00;;;;;;;;;;5109979;28;20023;-39
2021/11/20 04:59:24;;;;;;;7.82;5.28;;;;;;;;;;5109945;28;20026;-42
2021/11/20 05:01:49;;;;;;;8.95;6.35;;;;;;;;;;5109784;28;20043;-42
2021/11/20 05:04:15;;;;;;;10.13;7.03;;;;;;;;;;5108171;28;20031;-41
2021/11/20 05:06:40;;;;;;;7.85;5.82;;;;;;;;;;5107124;28;20024;-40
2021/11/20 05:09:06;;;;;;;11.07;5.68;;;;;;;;;;5109306;28;20447;-39
2021/11/20 05:11:33;;;;;;;8.68;6.05;;;;;;;;;;5107744;28;20118;-39
2021/11/20 05:14:00;;;;;;;16.85;6.28;;;;;;;;;;5107851;28;20145;-38
2021/11/20 05:16:25;;;;;;;7.00;5.82;;;;;;;;;;5108467;28;20015;-42
2021/11/20 05:18:51;;;;;;;11.35;5.18;;;;;;;;;;5108929;28;20109;-42
2021/11/20 05:21:17;;;;;;;6.03;5.28;;;;;;;;;;5108064;28;20058;-39
2021/11/20 05:23:43;;;;;;;6.70;5.90;;;;;;;;;;5104841;28;20011;-39
2021/11/20 05:26:09;;;;;;;7.53;6.22;;;;;;;;;;5109214;28;20023;-39
2021/11/20 05:28:34;;;;;;;9.10;6.10;;;;;;;;;;5108841;28;20427;-42
2021/11/20 05:31:00;;;;;;;8.18;4.95;;;;;;;;;;5108615;28;20027;-40
2021/11/20 05:33:31;;;;;;;7.72;6.35;;;;;;;;;;5108202;28;20526;-39
2021/11/20 05:35:56;;;;;;;;;;;;;;;;;;5104483;28;20058;-39
2021/11/20 05:38:22;;;;;;;3.90;3.38;;;;;;;;;;5107900;28;19959;-39
2021/11/20 05:40:47;;;;;;;8.93;5.03;;;;;;;;;;5108518;28;20084;-40
2021/11/20 05:43:14;;;;;;;8.48;7.32;;;;;;;;;;5108431;28;20023;-39
2021/11/20 05:45:40;;;;;;;8.02;5.95;;;;;;;;;;5106439;28;20024;-42
2021/11/20 05:48:06;;;;;;;5.68;4.97;;;;;;;;;;5107132;28;20047;-40
2021/11/20 05:50:32;;;;;;;10.85;6.07;;;;;;;;;;5108290;28;20487;-40
2021/11/20 05:52:57;;;;;;;9.43;5.53;;;;;;;;;;5108689;28;20020;-39
2021/11/20 05:55:27;;;;;;;9.38;7.70;;;;;;;;;;5108604;28;20015;-40
2021/11/20 05:57:53;;;;;;;7.82;4.97;;;;;;;;;;5109035;28;20068;-44
2021/11/20 06:00:21;;;;;;;7.40;6.05;;;;;;;;;;5108411;28;20023;-40
2021/11/20 06:02:46;;;;;;;44.05;13.70;;;;;;;;;;5108912;28;20521;-40
2021/11/20 06:05:11;;;;;;;22.60;13.05;;;;;;;;;;5108956;28;20493;-40
2021/11/20 06:07:37;;;;;;;22.13;9.48;;;;;;;;;;5108628;28;20020;-39
2021/11/20 06:10:03;;;;;;;22.48;9.38;;;;;;;;;;5108061;28;20084;-41
2021/11/20 06:12:28;;;;;;;26.30;11.35;;;;;;;;;;5106695;28;20094;-39
2021/11/20 06:14:54;;;;;;;12.70;7.43;;;;;;;;;;5108533;28;20107;-39
2021/11/20 06:17:19;;;;;;;13.65;7.68;;;;;;;;;;5107756;28;20092;-42
2021/11/20 06:19:44;;;;;;;9.77;6.57;;;;;;;;;;5107099;28;20035;-40
2021/11/20 06:22:10;;;;;;;19.42;7.40;;;;;;;;;;5106579;28;20030;-39
2021/11/20 06:24:35;;;;;;;11.65;5.05;;;;;;;;;;5107979;28;20062;-39
2021/11/20 06:27:01;;;;;;;10.93;6.00;;;;;;;;;;5106794;28;20023;-40
2021/11/20 06:29:26;;;;;;;12.32;9.23;;;;;;;;;;5106320;28;20434;-40
2021/11/20 06:31:52;;;;;;;10.15;6.28;;;;;;;;;;5106592;28;20021;-43
2021/11/20 06:34:17;;;;;;;26.10;12.23;;;;;;;;;;5106366;28;20435;-41
2021/11/20 06:36:43;;;;;;;23.52;16.58;;;;;;;;;;5107933;28;20024;-41
2021/11/20 06:39:09;;;;;;;20.80;13.55;;;;;;;;;;5108291;28;20071;-41
2021/11/20 06:41:34;;;;;;;19.33;11.88;;;;;;;;;;5105504;28;20458;-43
2021/11/20 06:43:59;;;;;;;13.55;9.93;;;;;;;;;;5108150;28;20095;-43
2021/11/20 06:46:25;;;;;;;16.75;12.38;;;;;;;;;;5106562;28;20054;-46
2021/11/20 06:48:50;;;;;;;11.95;10.75;;;;;;;;;;5106478;28;20044;-45
2021/11/20 06:51:18;;;;;;;15.60;10.65;;;;;;;;;;5105611;28;20051;-45
2021/11/20 06:53:44;;;;;;;24.77;10.50;;;;;;;;;;5106266;28;20098;-43
2021/11/20 06:56:16;;;;;;;17.08;9.95;;;;;;;;;;5107613;28;20023;-43
2021/11/20 06:59:05;;;;;;;13.32;10.05;;;;;;;;;;5106114;28;20056;-48
2021/11/20 07:01:27;;;;;;;16.67;11.23;;;;;;;;;;5106113;28;20513;-42
2021/11/20 07:03:54;;;;;;;15.18;9.50;;;;;;;;;;5107677;28;20057;-42
2021/11/20 07:06:21;;;;;;;34.95;19.95;;;;;;;;;;5106817;28;20031;-41
2021/11/20 07:08:48;;;;;;;18.67;11.68;;;;;;;;;;5107658;28;20030;-40
2021/11/20 07:11:14;;;;;;;11.40;8.50;;;;;;;;;;5105902;28;20015;-45
2021/11/20 07:13:40;;;;;;;13.40;8.13;;;;;;;;;;5105734;28;20034;-42
2021/11/20 07:16:06;;;;;;;16.58;8.57;;;;;;;;;;5107384;28;20024;-43
2021/11/20 07:18:31;;;;;;;15.88;9.55;;;;;;;;;;5105937;28;20544;-42
2021/11/20 07:20:57;;;;;;;8.90;7.80;;;;;;;;;;5107401;28;20020;-43
2021/11/20 07:23:24;;;;;;;9.98;9.00;;;;;;;;;;5106774;28;20020;-44
2021/11/20 07:25:49;;;;;;;15.48;11.85;;;;;;;;;;5105787;28;20043;-42
2021/11/20 07:28:15;;;;;;;18.55;13.60;;;;;;;;;;5106785;28;20019;-46
2021/11/20 07:30:41;;;;;;;26.48;15.73;;;;;;;;;;5106097;28;20541;-48
2021/11/20 07:33:09;;;;;;;22.02;14.07;;;;;;;;;;5107029;28;20058;-44
2021/11/20 07:35:39;;;;;;;11.13;9.77;;;;;;;;;;5105503;28;20024;-42
2021/11/20 07:38:06;;;;;;;14.85;11.30;;;;;;;;;;5106202;28;20023;-43
2021/11/20 07:40:33;;;;;;;26.33;13.48;;;;;;;;;;5110204;28;20054;-45
2021/11/20 07:42:58;;;;;;;15.15;12.23;;;;;;;;;;5109421;28;20069;-47
2021/11/20 07:45:24;;;;;;;14.05;12.05;;;;;;;;;;5110373;28;20466;-41
2021/11/20 07:47:49;;;;;;;16.38;13.40;;;;;;;;;;5110275;28;20402;-45
2021/11/20 07:50:16;;;;;;;19.85;11.70;;;;;;;;;;5108707;28;20047;-45
2021/11/20 07:52:42;;;;;;;22.48;14.77;;;;;;;;;;5110639;28;20019;-47
2021/11/20 07:55:07;;;;;;;17.60;13.40;;;;;;;;;;5108246;28;20692;-42
2021/11/20 07:57:33;;;;;;;13.32;11.20;;;;;;;;;;5110095;28;20061;-48
2021/11/20 07:59:58;;;;;;;15.90;11.27;;;;;;;;;;5110683;28;20496;-42
2021/11/20 08:02:23;;;;;;;14.70;10.10;;;;;;;;;;5109508;28;20031;-45
2021/11/20 08:04:49;;;;;;;14.05;9.10;;;;;;;;;;5110020;28;20023;-46
2021/11/20 08:07:14;;;;;;;9.88;8.68;;;;;;;;;;5109184;28;20058;-46
2021/11/20 08:09:39;;;;;;;9.43;8.45;;;;;;;;;;5109689;28;20038;-48
2021/11/20 08:12:06;;;;;;;23.52;11.88;;;;;;;;;;5108785;28;20457;-41
2021/11/20 08:14:31;;;;;;;14.98;12.77;;;;;;;;;;5109362;28;20019;-45
2021/11/20 08:16:57;;;;;;;11.02;9.65;;;;;;;;;;5109894;28;20375;-43
2021/11/20 08:19:22;;;;;;;33.15;17.35;;;;;;;;;;5108211;28;20111;-43
2021/11/20 08:21:48;;;;;;;22.75;16.95;;;;;;;;;;5109545;28;20032;-42
2021/11/20 08:24:15;;;;;;;26.55;19.10;;;;;;;;;;5109674;28;20031;-42
2021/11/20 08:26:43;;;;;;;16.92;15.07;;;;;;;;;;5109111;28;20020;-44
2021/11/20 08:29:13;;;;;;;21.35;18.33;;;;;;;;;;5106936;28;20024;-42
2021/11/20 08:31:41;;;;;;;20.85;15.70;;;;;;;;;;5105059;28;20470;-45
2021/11/20 08:34:07;;;;;;;16.20;14.48;;;;;;;;;;5104729;28;20024;-42
2021/11/20 08:36:32;;;;;;;17.30;13.75;;;;;;;;;;5108546;28;20015;-42
2021/11/20 08:38:58;;;;;;;17.17;14.20;;;;;;;;;;5108538;28;20047;-44
2021/11/20 08:41:23;;;;;;;17.42;14.98;;;;;;;;;;5107850;28;20530;-42
2021/11/20 08:43:48;;;;;;;20.25;14.77;;;;;;;;;;5105745;28;20038;-45
2021/11/20 08:46:15;;;;;;;23.20;20.63;;;;;;;;;;5109206;28;20028;-45
2021/11/20 08:48:40;;;;;;;36.58;27.67;;;;;;;;;;5107816;28;20575;-64
2021/11/20 08:51:08;;;;;;;30.92;25.02;;;;;;;;;;5108581;28;20028;-64
2021/11/20 08:53:34;;;;;;;16.67;14.15;;;;;;;;;;5108257;28;20084;-64
2021/11/20 08:55:59;;;;;;;13.38;11.02;;;;;;;;;;5109397;28;20028;-63
2021/11/20 08:58:25;;;;;;;29.00;14.25;;;;;;;;;;5090901;28;20020;-64
2021/11/20 09:00:55;;;;;;;23.83;16.20;;;;;;;;;;5109895;28;20100;-62
2021/11/20 09:03:36;;;;;;;9.05;8.18;;;;;;;;;;5108931;28;20020;-59
2021/11/20 09:06:04;;;;;;;16.20;11.38;;;;;;;;;;5107267;28;20090;-52
2021/11/20 09:08:38;;;;;;;16.45;14.82;;;;;;;;;;5108641;28;20492;-59
2021/11/20 09:11:04;;;;;;;18.13;15.75;;;;;;;;;;5108210;28;20247;-61
2021/11/20 09:13:31;;;;;;;23.60;19.63;;;;;;;;;;5102971;28;20767;-63
2021/11/20 09:16:06;;;;;;;27.08;24.60;;;;;;;;;;5107888;28;20015;-63
2021/11/20 09:18:32;;;;;;;21.30;17.48;;;;;;;;;;5107054;28;20573;-63
2021/11/20 09:20:59;;;;;;;26.60;23.48;;;;;;;;;;5108859;28;20685;-63
2021/11/20 09:23:24;;;;;;;33.00;25.77;;;;;;;;;;5106854;28;20732;-63
2021/11/20 09:25:53;;;;;;;38.80;34.85;;;;;;;;;;5107954;28;20024;-63
2021/11/20 09:28:19;;;;;;;40.75;36.40;;;;;;;;;;5104787;28;20027;-63
2021/11/20 09:30:47;;;;;;;56.90;45.42;;;;;;;;;;5107872;28;20022;-63
2021/11/20 09:33:14;;;;;;;52.75;46.97;;;;;;;;;;5108288;28;20099;-64
2021/11/20 09:35:40;;;;;;;59.25;45.22;;;;;;;;;;5101825;28;20507;-63
2021/11/20 09:38:06;;;;;;;70.20;48.50;;;;;;;;;;5100295;28;20624;-63
2021/11/20 09:40:33;;;;;;;63.83;52.20;;;;;;;;;;5107342;28;20068;-63
2021/11/20 09:43:01;;;;;;;58.58;35.63;;;;;;;;;;5100000;28;20016;-64
2021/11/20 09:45:35;;;;;;;48.47;37.10;;;;;;;;;;5104598;28;20048;-63
2021/11/20 09:48:08;;;;;;;40.63;36.40;;;;;;;;;;5106661;28;20039;-63
2021/11/20 09:50:49;;;;;;;33.60;30.10;;;;;;;;;;5104752;28;20502;-63
2021/11/20 09:53:14;;;;;;;29.90;23.08;;;;;;;;;;5105877;28;20016;-64
2021/11/20 09:55:42;;;;;;;25.33;21.13;;;;;;;;;;5106959;28;20084;-63
2021/11/20 09:58:08;;;;;;;45.22;37.97;;;;;;;;;;5105187;28;20562;-63
2021/11/20 10:00:36;;;;;;;33.53;30.33;;;;;;;;;;5103865;28;20023;-63
2021/11/20 10:03:05;;;;;;;39.58;35.47;;;;;;;;;;5105959;28;20064;-63
2021/11/20 10:05:36;;;;;;;41.95;30.27;;;;;;;;;;5105487;28;20028;-63
2021/11/20 10:08:10;;;;;;;33.78;27.27;;;;;;;;;;5105239;28;20566;-63
2021/11/20 10:10:41;;;;;;;38.78;32.85;;;;;;;;;;5107656;28;20042;-62
2021/11/20 10:13:10;;;;;;;34.33;30.05;;;;;;;;;;5104970;28;20032;-63
2021/11/20 10:15:39;;;;;;;26.02;22.80;;;;;;;;;;5105886;28;20107;-62
2021/11/20 10:18:13;;;;;;;32.20;24.90;;;;;;;;;;5106323;28;20539;-62
2021/11/20 10:20:45;;;;;;;32.03;22.40;;;;;;;;;;5106248;28;20482;-62
2021/11/20 10:23:10;;;;;;;30.77;20.85;;;;;;;;;;5104055;28;20058;-62
2021/11/20 10:25:36;;;;;;;19.13;17.05;;;;;;;;;;5106802;28;20050;-62
2021/11/20 10:28:01;;;;;;;7.93;6.80;;;;;;;;;;5106699;28;20031;-63
2021/11/20 10:30:39;;;;;;;40.55;24.98;;;;;;;;;;5106734;28;20026;-62
2021/11/20 10:33:10;;;;;;;31.25;25.00;;;;;;;;;;5106202;28;20120;-62
2021/11/20 10:35:41;;;;;;;21.85;8.95;;;;;;;;;;5105712;28;20030;-62
2021/11/20 10:38:11;;;;;;;7.07;4.03;;;;;;;;;;5106818;28;20024;-62
2021/11/20 10:40:48;;;;;;;6.57;5.63;;;;;;;;;;5106015;28;20027;-62
2021/11/20 10:43:23;;;;;;;22.27;9.55;;;;;;;;;;5103923;28;20110;-62
2021/11/20 10:45:51;;;;;;;11.93;10.10;;;;;;;;;;5104677;28;20020;-61
2021/11/20 10:48:30;;;;;;;17.70;11.32;;;;;;;;;;5104107;28;20043;-62
2021/11/20 10:51:15;;;;;;;13.82;12.27;;;;;;;;;;5105361;28;20020;-62
2021/11/20 10:53:52;;;;;;;19.52;10.57;;;;;;;;;;5051481;28;20123;-62
2021/11/20 10:56:22;;;;;;;15.15;9.07;;;;;;;;;;5106098;28;20640;-62
2021/11/20 10:59:06;;;;;;;6.65;5.47;;;;;;;;;;5104648;28;20037;-62
2021/11/20 11:01:53;;;;;;;6.85;2.78;;;;;;;;;;5103790;28;20023;-62
2021/11/20 11:04:36;;;;;;;7.45;5.75;;;;;;;;;;5101303;28;20752;-62
2021/11/20 11:07:04;;;;;;;8.02;4.70;;;;;;;;;;5104954;28;20422;-62
2021/11/20 11:09:30;;;;;;;5.75;4.38;;;;;;;;;;5104931;28;20501;-62
2021/11/20 11:11:59;;;;;;;7.05;4.53;;;;;;;;;;5102586;28;20023;-62
2021/11/20 11:14:33;;;;;;;5.32;3.22;;;;;;;;;;5105131;28;20031;-62
2021/11/20 11:17:13;;;;;;;6.72;5.25;;;;;;;;;;5106340;28;20050;-62
2021/11/20 11:19:38;;;;;;;8.82;4.43;;;;;;;;;;5105345;28;20023;-62
2021/11/20 11:22:22;;;;;;;7.22;4.60;;;;;;;;;;5105975;28;20099;-62
2021/11/20 11:24:53;;;;;;;8.43;3.78;;;;;;;;;;5102831;28;20047;-63
2021/11/20 11:27:25;;;;;;;14.68;5.68;;;;;;;;;;5105687;28;20020;-62
2021/11/20 11:30:02;;;;;;;15.20;8.48;;;;;;;;;;5105589;28;20085;-62
2021/11/20 11:32:29;;;;;;;7.95;7.25;;;;;;;;;;5106432;28;20030;-63
2021/11/20 11:34:57;;;;;;;9.68;7.78;;;;;;;;;;5105824;28;20020;-62
2021/11/20 11:37:25;;;;;;;8.35;7.50;;;;;;;;;;5106142;28;20020;-62
2021/11/20 11:39:59;;;;;;;8.57;6.90;;;;;;;;;;5106503;28;20168;-62
2021/11/20 11:42:24;;;;;;;11.25;7.95;;;;;;;;;;5104857;28;20023;-62
2021/11/20 11:44:58;;;;;;;11.80;8.27;;;;;;;;;;5106364;28;20029;-62
2021/11/20 11:47:23;;;;;;;16.27;10.80;;;;;;;;;;5105356;28;20062;-62
2021/11/20 11:49:54;;;;;;;13.50;12.23;;;;;;;;;;5106024;28;20490;-62
2021/11/20 11:52:26;;;;;;;31.95;15.27;;;;;;;;;;5105504;28;20643;-61
2021/11/20 11:55:10;;;;;;;18.13;14.70;;;;;;;;;;5105868;28;20016;-62
2021/11/20 11:57:50;;;;;;;24.35;14.57;;;;;;;;;;5105985;28;20092;-62
2021/11/20 12:00:17;;;;;;;26.50;10.90;;;;;;;;;;5104482;28;20119;-61
2021/11/20 12:02:48;;;;;;;13.15;11.75;;;;;;;;;;5104797;28;20098;-62
2021/11/20 12:05:29;;;;;;;12.90;6.63;;;;;;;;;;5105643;28;20031;-62
2021/11/20 12:07:57;;;;;;;6.63;3.27;;;;;;;;;;5105981;28;20240;-63
2021/11/20 12:10:22;;;;;;;6.30;2.92;;;;;;;;;;5106206;28;20301;-63
2021/11/20 12:12:56;;;;;;;6.20;3.78;;;;;;;;;;5106415;28;20027;-62
2021/11/20 12:15:28;;;;;;;8.25;4.90;;;;;;;;;;5105756;28;20020;-62
2021/11/20 12:17:59;;;;;;;10.90;7.82;;;;;;;;;;5104754;28;20068;-62
2021/11/20 12:20:38;;;;;;;15.88;11.07;;;;;;;;;;5083405;28;20019;-67
2021/11/20 12:23:25;;;;;;;9.25;6.57;;;;;;;;;;5105963;28;20076;-66
2021/11/20 12:26:09;;;;;;;5.93;4.85;;;;;;;;;;5107710;28;20027;-66
2021/11/20 12:28:40;;;;;;;5.63;4.30;;;;;;;;;;5107686;28;20039;-66
2021/11/20 12:31:20;;;;;;;5.30;3.38;;;;;;;;;;5109053;28;20024;-67
2021/11/20 12:34:01;;;;;;;9.55;4.10;;;;;;;;;;5108406;28;20688;-66
2021/11/20 12:36:29;;;;;;;10.87;6.93;;;;;;;;;;5108001;28;20510;-67
2021/11/20 12:39:13;;;;;;;6.45;4.82;;;;;;;;;;5108735;28;20030;-66
2021/11/20 12:42:05;;;;;;;12.27;4.88;;;;;;;;;;5108324;28;20024;-66
2021/11/20 12:44:30;;;;;;;6.20;4.15;;;;;;;;;;5108679;28;20126;-66
2021/11/20 12:46:59;;;;;;;5.63;4.22;;;;;;;;;;5108409;28;20130;-66
2021/11/20 12:49:39;;;;;;;7.10;2.58;;;;;;;;;;5106752;28;20035;-66
2021/11/20 12:52:17;;;;;;;10.70;3.00;;;;;;;;;;5107131;28;20080;-66
2021/11/20 12:54:52;;;;;;;7.43;3.55;;;;;;;;;;5107518;28;20012;-67
2021/11/20 12:57:29;;;;;;;8.30;5.75;;;;;;;;;;5108520;28;20478;-66
2021/11/20 13:00:14;;;;;;;6.00;3.83;;;;;;;;;;5107601;28;20027;-66
2021/11/20 13:02:52;;;;;;;4.03;3.47;;;;;;;;;;5105615;28;20043;-66
2021/11/20 13:05:23;;;;;;;3.67;1.67;;;;;;;;;;5107306;28;20051;-66
2021/11/20 13:07:55;;;;;;;4.75;3.03;;;;;;;;;;5109369;28;20020;-67
2021/11/20 13:10:26;;;;;;;3.47;2.45;;;;;;;;;;5107469;28;20023;-67
2021/11/20 13:12:51;;;;;;;;;;;;;;;;;;5108618;28;20026;-67
2021/11/20 13:15:23;;;;;;;11.20;2.47;;;;;;;;;;5108994;28;19907;-66
2021/11/20 13:17:57;;;;;;;6.00;4.25;;;;;;;;;;5107214;28;20016;-66
2021/11/20 13:20:51;;;;;;;5.55;4.05;;;;;;;;;;5090338;28;20024;-66
2021/11/20 13:23:19;;;;;;;8.32;4.55;;;;;;;;;;5088395;28;20055;-66
2021/11/20 13:25:49;;;;;;;4.93;2.33;;;;;;;;;;5088964;28;20028;-66
2021/11/20 13:28:14;;;;;;;5.95;2.05;;;;;;;;;;5105427;28;20102;-67
2021/11/20 13:30:43;;;;;;;14.55;5.32;;;;;;;;;;5108915;28;20500;-66
2021/11/20 13:33:15;;;;;;;6.10;5.22;;;;;;;;;;5109314;28;20019;-66
2021/11/20 13:35:41;;;;;;;6.70;6.00;;;;;;;;;;5102962;28;20462;-66
2021/11/20 13:38:13;;;;;;;10.68;6.65;;;;;;;;;;5107831;28;20023;-66
2021/11/20 13:40:42;;;;;;;19.50;7.82;;;;;;;;;;5106326;28;20055;-66
2021/11/20 13:43:15;;;;;;;10.15;8.63;;;;;;;;;;5105763;28;20047;-66
2021/11/20 13:45:42;;;;;;;7.40;4.03;;;;;;;;;;5106905;28;20694;-66
2021/11/20 13:48:07;;;;;;;5.53;4.10;;;;;;;;;;5106908;28;20045;-66
2021/11/20 13:50:43;;;;;;;4.57;2.80;;;;;;;;;;5107656;28;20020;-66
2021/11/20 13:53:12;;;;;;;10.05;4.63;;;;;;;;;;5108526;28;20196;-66
2021/11/20 13:55:37;;;;;;;4.30;3.90;;;;;;;;;;5108251;28;20086;-66
2021/11/20 13:58:03;;;;;;;3.30;2.42;;;;;;;;;;5108296;28;20856;-66
2021/11/20 14:00:28;;;;;;;2.80;2.50;;;;;;;;;;5107389;28;20023;-67
2021/11/20 14:02:54;;;;;;;1.65;1.27;;;;;;;;;;5107962;28;20024;-66
2021/11/20 14:05:21;;;;;;;4.85;2.97;;;;;;;;;;5107752;28;20100;-65
2021/11/20 14:07:47;;;;;;;3.78;2.13;;;;;;;;;;5107494;28;20065;-66
2021/11/20 14:10:14;;;;;;;5.25;3.05;;;;;;;;;;5107981;28;20068;-66
2021/11/20 14:15:26;;;;;;;18.25;7.05;;;;;;;;;;5107233;28;20751;-65
2021/11/20 14:17:59;;;;;;;12.02;7.32;;;;;;;;;;5106409;28;20028;-65
2021/11/20 14:20:25;;;;;;;11.20;8.63;;;;;;;;;;5089023;28;20673;-67
2021/11/20 14:22:50;;;;;;;3.72;2.55;;;;;;;;;;5107633;28;20024;-66
2021/11/20 14:25:20;;;;;;;8.50;6.30;;;;;;;;;;5107427;28;20111;-67
2021/11/20 14:27:58;;;;;;;13.35;11.93;;;;;;;;;;5108009;28;20030;-66
2021/11/20 14:30:24;;;;;;;23.45;21.33;;;;;;;;;;5106117;28;20024;-66
2021/11/20 14:32:50;;;;;;;13.02;11.25;;;;;;;;;;5107063;28;20384;-65
2021/11/20 14:35:15;;;;;;;9.00;7.75;;;;;;;;;;5103646;28;20020;-66
2021/11/20 14:37:40;;;;;;;16.33;11.75;;;;;;;;;;5107071;28;20497;-66
2021/11/20 14:40:08;;;;;;;13.02;11.50;;;;;;;;;;5087589;28;20038;-67